Time;durP1;ratioP1;P1;durP2;ratioP2;P2;SDS_P1;SDS_P2;PMS_P1;PMS_P2;Temp;Humidity;BMP_temperature;BMP_pressure;BME280_temperature;BME280_humidity;BME280_pressure;Samples;Min_cycle;Max_cycle;Signal;HPM_P1;HPM_P2
2022/10/09 00:01:30;;;;;;;7.95;1.85;;;;;;;12.68;55.43;100743.81;5110308;28;20075;-62
2022/10/09 00:03:58;;;;;;;13.02;2.20;;;;;;;12.68;55.47;100740.31;5110205;28;20047;-58
2022/10/09 00:06:28;;;;;;;8.40;2.40;;;;;;;12.66;55.80;100742.16;5111287;28;20134;-61
2022/10/09 00:08:55;;;;;;;8.68;2.35;;;;;;;12.67;55.59;100743.88;5110996;28;20048;-62
2022/10/09 00:11:27;;;;;;;10.52;2.42;;;;;;;12.61;56.44;100745.91;5109977;28;20096;-61
2022/10/09 00:13:54;;;;;;;5.75;2.45;;;;;;;12.62;55.73;100739.69;5111063;28;20083;-61
2022/10/09 00:16:21;;;;;;;9.32;2.72;;;;;;;12.60;55.59;100738.91;5110420;28;20400;-60
2022/10/09 00:18:49;;;;;;;7.45;2.53;;;;;;;12.58;55.58;100742.53;5111058;28;20104;-64
2022/10/09 00:21:31;;;;;;;8.50;2.35;;;;;;;12.52;56.51;100743.69;5113537;28;20108;-60
2022/10/09 00:24:00;;;;;;;8.02;2.35;;;;;;;12.53;55.99;100739.28;5114906;28;20476;-61
2022/10/09 00:26:27;;;;;;;8.88;2.00;;;;;;;12.53;55.68;100748.06;5115347;28;20408;-61
2022/10/09 00:28:54;;;;;;;10.02;2.58;;;;;;;12.51;55.94;100744.63;5114839;28;20105;-61
2022/10/09 00:31:21;;;;;;;8.85;2.20;;;;;;;12.49;55.87;100744.72;5114913;28;20506;-62
2022/10/09 00:33:48;;;;;;;7.38;2.20;;;;;;;12.49;55.67;100746.50;5114791;28;20108;-60
2022/10/09 00:36:18;;;;;;;8.30;1.75;;;;;;;12.46;56.07;100751.94;5114875;28;20104;-62
2022/10/09 00:38:45;;;;;;;6.75;2.20;;;;;;;12.47;55.77;100740.44;5113269;28;20093;-61
2022/10/09 00:41:15;;;;;;;9.60;2.35;;;;;;;12.45;56.05;100748.44;5114901;28;20052;-61
2022/10/09 00:43:44;;;;;;;9.35;1.83;;;;;;;12.44;55.60;100748.50;5113362;28;20453;-59
2022/10/09 00:46:25;;;;;;;5.03;1.90;;;;;;;12.38;56.42;100744.41;5113455;28;20083;-61
2022/10/09 00:48:58;;;;;;;9.30;2.35;;;;;;;12.38;56.19;100744.41;5114219;28;20494;-61
2022/10/09 00:51:24;;;;;;;9.23;2.40;;;;;;;12.36;55.65;100747.09;5113370;28;20134;-62
2022/10/09 00:53:51;;;;;;;6.30;2.58;;;;;;;12.33;55.89;100749.88;5114426;28;20488;-61
2022/10/09 00:56:18;;;;;;;7.45;2.92;;;;;;;12.31;55.99;100750.91;5114283;28;20077;-62
2022/10/09 00:58:50;;;;;;;7.50;2.72;;;;;;;12.28;56.67;100743.97;5114133;28;20082;-60
2022/10/09 01:01:17;;;;;;;5.47;2.65;;;;;;;12.26;55.99;100748.47;5113188;28;20134;-61
2022/10/09 01:03:44;;;;;;;8.48;2.55;;;;;;;12.23;56.10;100756.56;5114298;28;20166;-60
2022/10/09 01:06:32;;;;;;;4.28;2.25;;;;;;;12.19;56.89;100749.72;5114425;28;20496;-60
2022/10/09 01:09:13;;;;;;;7.10;2.67;;;;;;;12.12;57.25;100749.97;5114173;28;20480;-58
2022/10/09 01:11:57;;;;;;;5.28;2.65;;;;;;;12.09;57.03;100750.16;5114157;28;20044;-58
2022/10/09 01:14:41;;;;;;;7.80;2.88;;;;;;;12.06;57.38;100754.69;5112970;28;20074;-61
2022/10/09 01:17:20;;;;;;;6.47;2.75;;;;;;;12.09;57.12;100766.00;5113071;28;20047;-61
2022/10/09 01:20:12;;;;;;;8.20;2.45;;;;;;;12.04;57.27;100756.53;5112667;28;20120;-61
2022/10/09 01:22:57;;;;;;;9.98;2.95;;;;;;;12.03;57.20;100753.03;5113755;28;20556;-60
2022/10/09 01:25:33;;;;;;;6.47;2.90;;;;;;;12.02;56.98;100756.59;5114062;28;20437;-60
2022/10/09 01:28:05;;;;;;;10.90;3.08;;;;;;;11.99;56.82;100751.47;5113928;28;20063;-58
2022/10/09 01:30:34;;;;;;;8.90;2.70;;;;;;;11.96;56.35;100754.28;5113450;28;20047;-63
2022/10/09 01:33:02;;;;;;;6.60;2.97;;;;;;;11.92;56.51;100752.69;5113878;28;20289;-60
2022/10/09 01:35:29;;;;;;;6.75;2.55;;;;;;;11.88;56.66;100751.13;5112451;28;20239;-61
2022/10/09 01:37:58;;;;;;;7.75;2.78;;;;;;;11.83;56.75;100749.56;5112640;28;20071;-61
2022/10/09 01:40:27;;;;;;;6.93;2.78;;;;;;;11.81;57.14;100743.47;5113362;28;20060;-60
2022/10/09 01:42:55;;;;;;;6.13;2.60;;;;;;;11.80;57.11;100740.91;5113501;28;20047;-62
2022/10/09 01:45:21;;;;;;;8.90;2.55;;;;;;;11.78;56.96;100740.13;5112150;28;20122;-58
2022/10/09 01:47:48;;;;;;;11.18;2.75;;;;;;;11.76;57.02;100736.69;5113417;28;20566;-64
2022/10/09 01:50:24;;;;;;;8.07;2.75;;;;;;;11.70;58.02;100743.13;5113200;28;20086;-62
2022/10/09 01:53:06;;;;;;;9.98;3.20;;;;;;;11.67;58.17;100743.28;5113487;28;20040;-61
2022/10/09 01:55:41;;;;;;;8.38;2.90;;;;;;;11.67;57.37;100738.00;5113015;28;20135;-63
2022/10/09 01:58:29;;;;;;;6.72;2.70;;;;;;;11.60;58.55;100732.16;5113028;28;20503;-64
2022/10/09 02:01:19;;;;;;;7.65;2.80;;;;;;;11.57;58.42;100732.28;5113269;28;20165;-61
2022/10/09 02:03:49;;;;;;;7.72;2.80;;;;;;;11.57;57.77;100730.50;5112031;28;20050;-61
2022/10/09 02:06:17;;;;;;;9.10;2.83;;;;;;;11.56;57.83;100730.56;5113034;28;20104;-61
2022/10/09 02:08:53;;;;;;;8.00;2.75;;;;;;;11.50;58.59;100731.69;5112764;28;20089;-59
2022/10/09 02:11:20;;;;;;;5.65;2.55;;;;;;;11.49;57.68;100729.13;5113214;28;20083;-60
2022/10/09 02:13:51;;;;;;;10.20;3.20;;;;;;;11.46;58.40;100732.75;5111554;28;20044;-61
2022/10/09 02:16:28;;;;;;;8.13;2.90;;;;;;;11.39;59.01;100726.03;5113018;28;20132;-61
2022/10/09 02:19:08;;;;;;;9.38;2.92;;;;;;;11.37;59.01;100725.28;5112536;28;20079;-60
2022/10/09 02:21:54;;;;;;;7.75;3.10;;;;;;;11.32;59.03;100718.44;5113038;28;20047;-63
2022/10/09 02:24:23;;;;;;;11.50;3.30;;;;;;;11.33;58.06;100727.19;5111139;28;20100;-60
2022/10/09 02:26:52;;;;;;;7.28;3.20;;;;;;;11.30;58.40;100716.78;5112545;28;20074;-61
2022/10/09 02:29:19;;;;;;;5.53;2.92;;;;;;;11.29;58.12;100729.09;5112505;28;20092;-60
2022/10/09 02:31:46;;;;;;;5.72;3.28;;;;;;;11.26;58.16;100723.97;5111540;28;20098;-59
2022/10/09 02:34:16;;;;;;;8.93;3.60;;;;;;;11.25;59.07;100730.16;5112584;28;20052;-62
2022/10/09 02:36:44;;;;;;;6.60;2.95;;;;;;;11.24;58.26;100728.44;5112522;28;20456;-62
2022/10/09 02:39:11;;;;;;;7.38;3.70;;;;;;;11.22;58.52;100722.41;5110929;28;20104;-62
2022/10/09 02:41:37;;;;;;;10.10;3.90;;;;;;;11.20;58.53;100722.47;5112122;28;20385;-62
2022/10/09 02:44:05;;;;;;;5.57;3.13;;;;;;;11.18;58.41;100726.94;5111928;28;20097;-59
2022/10/09 02:46:33;;;;;;;8.60;3.40;;;;;;;11.18;58.57;100718.19;5111211;28;20048;-62
2022/10/09 02:48:59;;;;;;;8.38;3.42;;;;;;;11.16;58.63;100722.66;5111895;28;20066;-61
2022/10/09 02:51:26;;;;;;;7.80;3.38;;;;;;;11.16;58.64;100722.66;5112241;28;20090;-60
2022/10/09 02:53:54;;;;;;;5.07;3.35;;;;;;;11.13;58.87;100717.50;5112179;28;20130;-62
2022/10/09 02:56:22;;;;;;;12.32;3.53;;;;;;;11.13;59.00;100718.38;5112243;28;20434;-61
2022/10/09 02:58:48;;;;;;;6.53;2.83;;;;;;;11.14;58.82;100724.53;5111808;28;20079;-61
2022/10/09 03:01:15;;;;;;;9.05;3.47;;;;;;;11.13;58.84;100722.78;5111892;28;20079;-61
2022/10/09 03:03:42;;;;;;;7.28;3.17;;;;;;;11.12;58.96;100719.31;5112024;28;20051;-61
2022/10/09 03:06:14;;;;;;;11.35;3.25;;;;;;;11.12;59.20;100723.72;5112108;28;20050;-62
2022/10/09 03:08:45;;;;;;;8.55;3.22;;;;;;;11.12;59.15;100719.31;5111717;28;20135;-60
2022/10/09 03:11:14;;;;;;;7.07;2.85;;;;;;;11.13;59.18;100722.78;5111738;28;20130;-62
2022/10/09 03:13:41;;;;;;;6.95;3.22;;;;;;;11.14;59.10;100721.88;5111986;28;20039;-60
2022/10/09 03:16:11;;;;;;;8.18;3.42;;;;;;;11.13;59.37;100728.91;5111797;28;20098;-61
2022/10/09 03:18:39;;;;;;;4.43;2.60;;;;;;;11.15;58.92;100724.47;5111809;28;20051;-60
2022/10/09 03:21:10;;;;;;;7.90;3.33;;;;;;;11.15;59.00;100718.31;5110381;28;20051;-61
2022/10/09 03:23:37;;;;;;;4.43;3.00;;;;;;;11.14;58.84;100712.19;5110610;28;20121;-60
2022/10/09 03:26:07;;;;;;;7.43;3.42;;;;;;;11.12;59.50;100711.41;5111710;28;20102;-60
2022/10/09 03:28:39;;;;;;;7.57;3.58;;;;;;;11.10;59.66;100712.41;5110296;28;20060;-60
2022/10/09 03:31:06;;;;;;;9.13;2.85;;;;;;;11.12;58.78;100710.53;5110410;28;20126;-60
2022/10/09 03:33:34;;;;;;;9.65;3.40;;;;;;;11.12;58.90;100713.19;5110382;28;20056;-61
2022/10/09 03:36:01;;;;;;;7.78;2.80;;;;;;;11.10;58.85;100713.25;5111435;28;20518;-62
2022/10/09 03:38:27;;;;;;;9.25;3.13;;;;;;;11.10;58.92;100712.41;5111540;28;20044;-60
2022/10/09 03:40:56;;;;;;;8.32;2.92;;;;;;;11.08;58.98;100712.47;5111595;28;20056;-60
2022/10/09 03:43:23;;;;;;;5.93;2.80;;;;;;;11.07;59.20;100708.13;5111782;28;20471;-60
2022/10/09 03:45:50;;;;;;;5.53;3.00;;;;;;;11.06;58.92;100707.25;5111496;28;20090;-61
2022/10/09 03:48:16;;;;;;;9.38;3.58;;;;;;;11.05;59.02;100708.19;5111345;28;20047;-60
2022/10/09 03:50:43;;;;;;;6.72;3.20;;;;;;;11.03;59.04;100712.66;5111531;28;20075;-60
2022/10/09 03:53:13;;;;;;;12.68;3.20;;;;;;;11.02;59.87;100715.34;5111494;28;20102;-61
2022/10/09 03:55:40;;;;;;;7.53;3.35;;;;;;;11.01;59.15;100714.50;5115683;28;20111;-61
2022/10/09 03:58:08;;;;;;;8.77;3.42;;;;;;;11.00;59.18;100711.94;5114186;28;20044;-62
2022/10/09 04:00:35;;;;;;;6.20;3.15;;;;;;;11.00;59.05;100709.31;5115594;28;20043;-61
2022/10/09 04:03:01;;;;;;;9.30;3.30;;;;;;;11.00;59.06;100715.44;5114452;28;20154;-61
2022/10/09 04:05:32;;;;;;;6.43;3.20;;;;;;;10.97;59.57;100718.19;5115532;28;20048;-60
2022/10/09 04:07:59;;;;;;;9.55;3.72;;;;;;;10.97;58.86;100719.97;5115287;28;20087;-61
2022/10/09 04:10:26;;;;;;;6.72;3.38;;;;;;;10.96;58.86;100729.66;5115247;28;20583;-62
2022/10/09 04:12:52;;;;;;;8.95;3.50;;;;;;;10.95;58.82;100733.19;5115235;28;20449;-60
2022/10/09 04:15:19;;;;;;;6.28;3.40;;;;;;;10.93;58.83;100728.03;5115033;28;20111;-60
2022/10/09 04:17:45;;;;;;;6.82;3.10;;;;;;;10.91;58.87;100728.97;5115366;28;20048;-61
2022/10/09 04:20:12;;;;;;;9.32;3.92;;;;;;;10.90;58.96;100727.28;5114800;28;20091;-61
2022/10/09 04:22:38;;;;;;;7.78;3.45;;;;;;;10.88;58.99;100731.78;5115264;28;20056;-61
2022/10/09 04:25:05;;;;;;;4.82;2.88;;;;;;;10.87;59.03;100730.06;5115116;28;20134;-60
2022/10/09 04:27:32;;;;;;;9.93;3.35;;;;;;;10.86;59.01;100728.31;5114954;28;20582;-63
2022/10/09 04:29:58;;;;;;;7.50;3.30;;;;;;;10.85;59.15;100726.63;5114671;27;20047;-61
2022/10/09 04:32:25;;;;;;;12.73;3.40;;;;;;;10.83;59.16;100724.06;5115061;28;20043;-61
2022/10/09 04:34:51;;;;;;;5.88;3.25;;;;;;;10.82;59.02;100725.84;5114917;28;20079;-60
2022/10/09 04:37:18;;;;;;;4.78;2.95;;;;;;;10.81;59.14;100728.53;5114865;28;20086;-60
2022/10/09 04:39:44;;;;;;;7.10;2.83;;;;;;;10.79;59.11;100725.09;5114552;28;20094;-61
2022/10/09 04:42:11;;;;;;;5.93;3.50;;;;;;;10.78;59.35;100718.13;5114667;28;20135;-61
2022/10/09 04:44:37;;;;;;;7.53;2.80;;;;;;;10.77;59.48;100725.16;5114701;28;20091;-61
2022/10/09 04:47:04;;;;;;;10.48;3.20;;;;;;;10.75;59.24;100719.13;5114502;28;20484;-61
2022/10/09 04:49:36;;;;;;;8.68;3.67;;;;;;;10.76;59.21;100720.00;5114444;28;20047;-59
2022/10/09 04:52:03;;;;;;;6.95;3.05;;;;;;;10.74;59.42;100720.06;5114571;28;20051;-60
2022/10/09 04:54:29;;;;;;;8.35;2.95;;;;;;;10.73;59.55;100720.94;5114545;28;20081;-61
2022/10/09 04:56:56;;;;;;;6.18;2.75;;;;;;;10.72;59.45;100713.97;5114261;28;20040;-63
2022/10/09 04:59:23;;;;;;;7.18;2.80;;;;;;;10.72;59.68;100718.41;5114397;28;20044;-61
2022/10/09 05:01:49;;;;;;;7.28;2.75;;;;;;;10.72;59.64;100732.41;5114410;28;20052;-62
2022/10/09 05:04:16;;;;;;;5.28;2.40;;;;;;;10.72;59.64;100728.94;5114417;28;20058;-61
2022/10/09 05:06:42;;;;;;;5.78;2.97;;;;;;;10.72;59.66;100728.94;5113549;27;20134;-62
2022/10/09 05:09:09;;;;;;;4.68;2.72;;;;;;;10.72;59.88;100718.41;5114212;28;20083;-61
2022/10/09 05:11:36;;;;;;;8.40;2.40;;;;;;;10.73;59.96;100730.63;5114091;28;20163;-60
2022/10/09 05:14:08;;;;;;;6.65;3.47;;;;;;;10.75;59.77;100728.78;5114848;28;20051;-60
2022/10/09 05:16:35;;;;;;;9.18;2.95;;;;;;;10.75;60.16;100723.53;5113958;28;20048;-60
2022/10/09 05:19:22;;;;;;;7.35;2.90;;;;;;;10.76;60.14;100718.19;5113959;28;20476;-61
2022/10/09 05:21:48;;;;;;;7.03;2.92;;;;;;;10.78;60.07;100720.75;5113934;28;20052;-61
2022/10/09 05:24:15;;;;;;;6.07;2.60;;;;;;;10.77;60.28;100714.63;5114558;28;20051;-61
2022/10/09 05:26:41;;;;;;;8.82;3.15;;;;;;;10.78;60.08;100716.38;5114051;28;20047;-59
2022/10/09 05:29:08;;;;;;;11.90;3.40;;;;;;;10.79;60.14;100719.84;5113637;28;20051;-60
2022/10/09 05:31:36;;;;;;;9.15;3.72;;;;;;;10.81;59.97;100726.75;5113759;28;20621;-60
2022/10/09 05:34:03;;;;;;;14.50;3.47;;;;;;;10.79;59.95;100725.97;5113825;28;20078;-59
2022/10/09 05:36:29;;;;;;;7.43;3.20;;;;;;;10.80;59.81;100721.53;5113482;28;20488;-59
2022/10/09 05:38:57;;;;;;;5.53;2.90;;;;;;;10.81;59.92;100728.53;5113615;28;20052;-61
2022/10/09 05:41:23;;;;;;;5.57;2.92;;;;;;;10.80;59.77;100726.81;5113845;28;20080;-57
2022/10/09 05:43:50;;;;;;;5.82;3.20;;;;;;;10.79;59.81;100722.47;5113620;28;20087;-61
2022/10/09 05:46:19;;;;;;;5.15;3.13;;;;;;;10.77;59.95;100722.53;5113455;28;20101;-61
2022/10/09 05:48:51;;;;;;;4.88;2.92;;;;;;;10.74;60.40;100712.16;5112104;28;20084;-60
2022/10/09 05:51:22;;;;;;;5.60;3.03;;;;;;;10.74;59.88;100722.69;5113267;28;20101;-60
2022/10/09 05:53:49;;;;;;;9.25;3.45;;;;;;;10.74;59.94;100732.34;5113425;28;20442;-57
2022/10/09 05:56:26;;;;;;;9.68;3.95;;;;;;;10.71;60.48;100727.19;5113260;28;20108;-59
2022/10/09 05:58:55;;;;;;;7.40;3.47;;;;;;;10.70;60.22;100715.84;5112053;28;20051;-59
2022/10/09 06:01:27;;;;;;;5.80;3.42;;;;;;;10.70;60.23;100721.09;5113073;28;20044;-61
2022/10/09 06:03:57;;;;;;;7.07;3.55;;;;;;;10.70;60.25;100721.09;5113136;28;20048;-61
2022/10/09 06:06:26;;;;;;;12.32;4.00;;;;;;;10.71;60.36;100716.66;5112899;28;20094;-62
2022/10/09 06:08:53;;;;;;;8.25;3.78;;;;;;;10.71;60.20;100725.44;5112793;28;20553;-58
2022/10/09 06:11:27;;;;;;;8.32;4.47;;;;;;;10.71;60.55;100720.16;5113007;28;20134;-61
2022/10/09 06:13:55;;;;;;;8.35;3.33;;;;;;;10.72;60.17;100715.78;5111955;28;20047;-63
2022/10/09 06:16:24;;;;;;;11.30;4.40;;;;;;;10.72;60.58;100724.50;5112851;28;20087;-60
2022/10/09 06:18:52;;;;;;;9.77;4.55;;;;;;;10.74;60.47;100725.31;5111847;28;20044;-57
2022/10/09 06:21:19;;;;;;;9.10;3.88;;;;;;;10.75;60.30;100718.25;5111661;28;20090;-60
2022/10/09 06:23:54;;;;;;;7.55;3.90;;;;;;;10.74;61.05;100722.69;5112619;28;20101;-62
2022/10/09 06:26:21;;;;;;;10.20;4.32;;;;;;;10.77;60.30;100730.44;5111564;28;20130;-61
2022/10/09 06:28:49;;;;;;;9.77;3.90;;;;;;;10.78;60.25;100726.91;5112235;28;20086;-63
2022/10/09 06:31:18;;;;;;;8.90;4.30;;;;;;;10.78;60.60;100721.63;5111738;28;20043;-55
2022/10/09 06:33:46;;;;;;;9.30;4.63;;;;;;;10.79;60.68;100720.69;5112913;28;20044;-61
2022/10/09 06:36:16;;;;;;;7.40;3.97;;;;;;;10.80;60.74;100725.03;5111955;28;20101;-59
2022/10/09 06:38:43;;;;;;;8.95;4.20;;;;;;;10.84;60.61;100722.28;5113152;28;20476;-61
2022/10/09 06:41:32;;;;;;;7.93;4.07;;;;;;;10.83;61.17;100731.94;5111925;28;20077;-59
2022/10/09 06:44:00;;;;;;;8.07;4.25;;;;;;;10.88;60.63;100737.03;5113251;28;20454;-60
2022/10/09 06:46:30;;;;;;;7.97;3.72;;;;;;;10.88;60.81;100740.50;5113174;28;20043;-58
2022/10/09 06:49:00;;;;;;;9.60;4.60;;;;;;;10.89;61.12;100738.75;5111541;28;20134;-61
2022/10/09 06:51:30;;;;;;;10.07;3.80;;;;;;;10.91;60.70;100735.13;5112836;28;20051;-58
2022/10/09 06:53:59;;;;;;;12.48;4.70;;;;;;;10.93;60.76;100737.69;5109946;28;20580;-64
2022/10/09 06:56:28;;;;;;;13.52;4.60;;;;;;;10.94;60.81;100737.63;5109126;28;20035;-61
2022/10/09 06:58:58;;;;;;;8.63;4.43;;;;;;;10.94;61.16;100742.91;5111469;28;20052;-61
2022/10/09 07:01:29;;;;;;;10.35;4.45;;;;;;;10.97;60.93;100741.91;5089922;28;20040;-62
2022/10/09 07:03:59;;;;;;;9.98;4.93;;;;;;;10.99;61.07;100741.84;5110316;28;20044;-60
2022/10/09 07:06:28;;;;;;;10.70;4.97;;;;;;;11.00;61.08;100751.47;5112935;28;20052;-60
2022/10/09 07:09:03;;;;;;;11.68;4.70;;;;;;;11.00;61.77;100751.47;5112542;28;20051;-61
2022/10/09 07:11:35;;;;;;;12.50;5.30;;;;;;;11.04;61.59;100756.53;5111403;28;20526;-60
2022/10/09 07:14:05;;;;;;;13.15;4.93;;;;;;;11.08;61.25;100755.50;5111487;28;20051;-60
2022/10/09 07:16:35;;;;;;;8.90;5.10;;;;;;;11.11;61.24;100757.13;5112312;28;20542;-61
2022/10/09 07:19:06;;;;;;;12.07;5.57;;;;;;;11.15;61.07;100758.72;5111015;28;20048;-62
2022/10/09 07:21:34;;;;;;;8.05;4.72;;;;;;;11.18;61.17;100760.34;5111441;28;20507;-61
2022/10/09 07:24:02;;;;;;;9.43;4.78;;;;;;;11.21;61.11;100757.56;5109056;27;20066;-60
2022/10/09 07:26:31;;;;;;;11.15;4.68;;;;;;;11.23;61.16;100761.00;5113592;27;20100;-61
2022/10/09 07:28:57;;;;;;;9.52;4.40;;;;;;;11.26;61.08;100763.53;5109514;28;20083;-64
2022/10/09 07:31:24;;;;;;;11.07;5.00;;;;;;;11.30;61.10;100758.97;5111091;28;20556;-61
2022/10/09 07:33:53;;;;;;;9.02;5.22;;;;;;;11.32;61.16;100762.38;5109720;28;20048;-61
2022/10/09 07:36:19;;;;;;;9.82;4.63;;;;;;;11.35;61.22;100770.16;5104194;28;20074;-61
2022/10/09 07:38:51;;;;;;;6.50;4.82;;;;;;;11.37;61.62;100764.81;5111211;28;20048;-62
2022/10/09 07:41:18;;;;;;;13.32;4.90;;;;;;;11.41;61.10;100769.03;5109771;28;20071;-63
2022/10/09 07:43:45;;;;;;;7.72;4.45;;;;;;;11.44;61.29;100767.09;5111203;28;20048;-61
2022/10/09 07:46:14;;;;;;;11.60;5.03;;;;;;;11.46;61.24;100767.03;5111092;28;20093;-62
2022/10/09 07:48:41;;;;;;;10.60;4.60;;;;;;;11.49;61.20;100772.19;5109826;28;20052;-62
2022/10/09 07:51:09;;;;;;;11.63;4.55;;;;;;;11.52;61.16;100772.06;5111310;28;20082;-62
2022/10/09 07:53:36;;;;;;;9.35;4.75;;;;;;;11.56;61.31;100775.41;5112003;28;20105;-61
2022/10/09 07:56:03;;;;;;;10.35;5.15;;;;;;;11.58;61.20;100774.41;5109404;28;20453;-61
2022/10/09 07:58:30;;;;;;;10.20;4.82;;;;;;;11.62;61.26;100774.28;5100824;28;20051;-63
2022/10/09 08:01:03;;;;;;;10.75;4.70;;;;;;;11.63;61.80;100774.22;5110659;28;20168;-61
2022/10/09 08:03:30;;;;;;;;;;;;;;;11.68;61.63;100779.25;5109504;28;20134;-61
2022/10/09 08:05:57;;;;;;;9.20;4.18;;;;;;;11.75;60.88;100772.78;5111129;28;19920;-63
2022/10/09 08:08:24;;;;;;;9.70;4.38;;;;;;;11.75;60.99;100770.16;5109816;28;20079;-62
2022/10/09 08:10:52;;;;;;;8.93;5.18;;;;;;;11.79;61.22;100778.78;5110971;28;20082;-61
2022/10/09 08:13:18;;;;;;;13.82;5.40;;;;;;;11.81;61.34;100772.50;5111322;28;20134;-61
2022/10/09 08:15:45;;;;;;;11.00;5.45;;;;;;;11.87;61.46;100771.38;5111105;28;20551;-61
2022/10/09 08:18:12;;;;;;;11.82;4.72;;;;;;;11.90;61.46;100773.88;5111270;28;20059;-61
2022/10/09 08:20:38;;;;;;;9.48;5.03;;;;;;;11.95;61.58;100766.59;5111092;28;20079;-64
2022/10/09 08:23:05;;;;;;;9.57;5.45;;;;;;;12.02;61.63;100771.56;5111189;28;20043;-60
2022/10/09 08:25:35;;;;;;;8.13;4.78;;;;;;;12.06;61.91;100762.63;5110319;28;20082;-61
2022/10/09 08:28:03;;;;;;;13.05;5.75;;;;;;;12.12;61.45;100768.47;5110584;28;20075;-61
2022/10/09 08:30:30;;;;;;;13.18;5.85;;;;;;;12.19;61.34;100762.91;5109627;28;20059;-60
2022/10/09 08:32:56;;;;;;;13.88;5.45;;;;;;;12.24;61.43;100763.53;5110937;28;20097;-60
2022/10/09 08:35:23;;;;;;;15.98;6.70;;;;;;;12.31;61.25;100766.72;5109147;28;20052;-63
2022/10/09 08:37:50;;;;;;;12.40;5.47;;;;;;;12.36;61.34;100754.16;5110219;28;20088;-60
2022/10/09 08:40:22;;;;;;;13.70;5.47;;;;;;;12.43;61.45;100757.34;5109890;28;20147;-60
2022/10/09 08:43:02;;;;;;;12.13;5.50;;;;;;;12.48;61.61;100760.63;5114317;28;20073;-60
2022/10/09 08:45:30;;;;;;;11.75;5.40;;;;;;;12.57;61.25;100756.69;5113256;28;20074;-60
2022/10/09 08:48:03;;;;;;;10.45;4.63;;;;;;;12.63;61.50;100759.88;5110451;28;20079;-61
2022/10/09 08:50:37;;;;;;;13.45;5.18;;;;;;;12.70;61.74;100760.44;5114235;28;20047;-60
2022/10/09 08:53:15;;;;;;;;;;;;;;;12.78;61.29;100762.69;5113919;28;20051;-62
2022/10/09 08:55:54;;;;;;;10.40;4.25;;;;;;;12.88;61.25;100758.66;5114145;28;20403;-60
2022/10/09 08:58:33;;;;;;;12.85;4.55;;;;;;;12.95;61.13;100758.34;5113989;28;20109;-61
2022/10/09 09:01:05;;;;;;;9.82;4.70;;;;;;;13.01;61.09;100752.75;5113865;28;20067;-62
2022/10/09 09:03:54;;;;;;;10.25;4.22;;;;;;;13.06;61.49;100750.72;5114229;28;20571;-61
2022/10/09 09:06:28;;;;;;;9.55;4.03;;;;;;;13.16;61.36;100753.75;5114547;28;20138;-60
2022/10/09 09:09:33;;;;;;;12.20;4.75;;;;;;;13.22;61.02;100750.78;5114041;28;20135;-60
2022/10/09 09:12:00;;;;;;;10.05;4.30;;;;;;;13.34;60.38;100743.97;5113879;28;20085;-62
2022/10/09 09:14:49;;;;;;;9.90;4.47;;;;;;;13.38;60.65;100744.69;5114201;28;20082;-61
2022/10/09 09:17:42;;;;;;;7.68;3.83;;;;;;;13.51;60.31;100750.19;5113862;28;20079;-62
2022/10/09 09:20:29;;;;;;;10.35;3.42;;;;;;;13.55;60.39;100742.03;5105010;28;20579;-60
2022/10/09 09:23:00;;;;;;;14.13;3.85;;;;;;;13.65;60.04;100739.72;5114196;28;20075;-63
2022/10/09 09:25:38;;;;;;;9.18;3.22;;;;;;;13.72;60.24;100742.06;5114207;28;20087;-61
2022/10/09 09:28:16;;;;;;;11.30;2.85;;;;;;;13.77;59.91;100748.81;5113832;28;20105;-60
2022/10/09 09:30:48;;;;;;;5.75;3.33;;;;;;;13.86;59.80;100734.19;5113604;28;20050;-60
2022/10/09 09:33:23;;;;;;;5.53;2.70;;;;;;;13.91;59.50;100734.78;5112280;28;20043;-60
2022/10/09 09:36:06;;;;;;;10.40;2.63;;;;;;;13.98;59.52;100732.66;5112292;28;20090;-63
2022/10/09 09:38:32;;;;;;;11.07;3.42;;;;;;;14.05;59.09;100726.09;5113295;28;20105;-63
2022/10/09 09:40:59;;;;;;;9.68;2.92;;;;;;;14.13;59.01;100725.66;5113520;28;20096;-60
2022/10/09 09:43:26;;;;;;;7.97;2.35;;;;;;;14.19;58.67;100720.03;5113485;28;20697;-60
2022/10/09 09:45:55;;;;;;;5.93;2.45;;;;;;;14.25;58.73;100712.66;5113227;28;20094;-64
2022/10/09 09:48:42;;;;;;;9.63;2.42;;;;;;;14.27;58.78;100703.69;5111972;28;20401;-61
2022/10/09 09:51:17;;;;;;;7.88;2.22;;;;;;;14.35;58.30;100703.25;5111781;28;20052;-63
2022/10/09 09:54:14;;;;;;;6.10;2.15;;;;;;;14.44;58.36;100704.50;5113196;28;20079;-60
2022/10/09 09:56:42;;;;;;;5.97;2.28;;;;;;;14.53;58.36;100706.63;5112830;28;20075;-60
2022/10/09 09:59:36;;;;;;;7.65;2.20;;;;;;;14.61;57.93;100705.31;5109387;28;20050;-60
2022/10/09 10:02:16;;;;;;;6.85;2.20;;;;;;;14.67;57.83;100689.06;5112078;28;20123;-61
2022/10/09 10:04:57;;;;;;;8.43;2.50;;;;;;;14.75;57.76;100689.44;5113073;28;20048;-62
2022/10/09 10:07:35;;;;;;;4.47;2.10;;;;;;;14.86;58.03;100683.53;5111698;28;20372;-60
2022/10/09 10:10:08;;;;;;;6.20;2.15;;;;;;;14.97;57.94;100680.25;5111059;28;20101;-60
2022/10/09 10:12:54;;;;;;;6.03;1.88;;;;;;;15.07;57.79;100678.72;5113072;28;20047;-61
2022/10/09 10:15:20;;;;;;;5.63;2.03;;;;;;;15.23;57.93;100678.66;5111696;28;20087;-61
2022/10/09 10:17:53;;;;;;;7.35;2.63;;;;;;;15.33;57.65;100678.06;5108332;28;20496;-63
2022/10/09 10:20:20;;;;;;;;;;;;;;;15.45;57.87;100682.63;5111204;28;20564;-60
2022/10/09 10:22:51;;;;;;;6.88;1.80;;;;;;;15.61;57.26;100677.19;5112433;28;20410;-61
2022/10/09 10:25:22;;;;;;;14.45;2.15;;;;;;;15.73;57.47;100672.88;5111111;28;20073;-61
2022/10/09 10:27:53;;;;;;;9.73;2.10;;;;;;;15.86;56.51;100680.91;5111251;28;20131;-60
2022/10/09 10:30:20;;;;;;;6.68;1.85;;;;;;;16.00;56.68;100682.69;5112211;28;20052;-62
2022/10/09 10:33:13;;;;;;;5.75;1.83;;;;;;;16.10;55.66;100672.34;5112667;28;20126;-60
2022/10/09 10:35:42;;;;;;;5.57;1.50;;;;;;;16.28;55.40;100672.06;5111363;28;20070;-60
2022/10/09 10:38:47;;;;;;;6.10;1.58;;;;;;;16.43;55.81;100672.84;5112126;28;20043;-60
2022/10/09 10:41:37;;;;;;;5.60;1.55;;;;;;;16.56;54.75;100664.06;5055993;28;20051;-61
2022/10/09 10:44:20;;;;;;;7.95;2.20;;;;;;;16.67;54.55;100667.69;5049090;28;20072;-63
2022/10/09 10:46:58;;;;;;;3.78;1.55;;;;;;;16.82;54.28;100661.41;5090530;28;20079;-61
2022/10/09 10:49:25;;;;;;;6.38;2.20;;;;;;;16.96;54.98;100661.31;5112221;28;20092;-60
2022/10/09 10:52:08;;;;;;;7.00;2.17;;;;;;;17.06;53.90;100649.13;5111283;28;20047;-60
2022/10/09 10:54:49;;;;;;;3.42;1.40;;;;;;;17.19;52.70;100657.06;5112303;28;20073;-61
2022/10/09 10:57:52;;;;;;;8.93;1.85;;;;;;;17.32;53.11;100651.72;5111853;28;20050;-62
2022/10/09 11:00:19;;;;;;;3.60;1.50;;;;;;;17.52;53.57;100643.25;5111707;28;20069;-60
2022/10/09 11:03:11;;;;;;;5.72;1.60;;;;;;;17.63;52.54;100639.81;5108852;28;20137;-60
2022/10/09 11:06:04;;;;;;;4.53;1.30;;;;;;;17.87;53.11;100636.34;5111697;28;20089;-64
2022/10/09 11:08:40;;;;;;;2.70;1.30;;;;;;;18.19;54.26;100635.75;5110589;28;20112;-60
2022/10/09 11:11:41;;;;;;;5.43;1.20;;;;;;;18.64;54.50;100629.69;5111620;28;20495;-60
2022/10/09 11:14:35;;;;;;;6.50;1.55;;;;;;;19.29;53.38;100626.50;5111376;28;20087;-64
2022/10/09 11:17:20;;;;;;;6.55;1.25;;;;;;;20.11;53.84;100618.97;5111758;28;20491;-60
2022/10/09 11:20:04;;;;;;;6.20;1.58;;;;;;;20.99;53.25;100619.66;5111389;28;20105;-60
2022/10/09 11:22:55;;;;;;;3.97;1.40;;;;;;;21.90;50.04;100609.91;5111804;28;20090;-63
2022/10/09 11:25:47;;;;;;;5.50;1.40;;;;;;;22.73;48.83;100609.34;5111512;28;20074;-60
2022/10/09 11:28:47;;;;;;;6.03;1.73;;;;;;;23.64;48.32;100603.41;5111292;28;20134;-61
2022/10/09 11:31:20;;;;;;;4.32;1.50;;;;;;;24.37;45.58;100600.69;5110301;28;20227;-61
2022/10/09 11:33:57;;;;;;;5.82;1.13;;;;;;;25.00;43.98;100587.09;5110143;28;20051;-62
2022/10/09 11:36:31;;;;;;;3.38;1.40;;;;;;;25.59;43.33;100587.09;5110361;28;20105;-63
2022/10/09 11:39:02;;;;;;;5.35;1.58;;;;;;;26.17;42.29;100577.34;5111322;28;20104;-60
2022/10/09 11:41:30;;;;;;;3.65;1.98;;;;;;;26.69;42.68;100580.63;5111474;28;20139;-60
2022/10/09 11:44:05;;;;;;;4.93;1.90;;;;;;;27.17;39.52;100570.66;5111462;28;20082;-61
2022/10/09 11:46:40;;;;;;;3.72;1.35;;;;;;;27.64;38.97;100570.72;5111689;28;20130;-62